createdAt,value
2023-01-06T00:00:15.167Z,-14.01
2023-01-06T00:02:17.881Z,-14.09
2023-01-06T00:04:20.549Z,-14.29
2023-01-06T00:06:27.822Z,-14.40
2023-01-06T00:08:31.509Z,-14.50
2023-01-06T00:10:34.147Z,-14.63
2023-01-06T00:12:37.084Z,-14.70
2023-01-06T00:14:39.805Z,-14.81
2023-01-06T00:16:42.522Z,-14.93
2023-01-06T00:18:46.123Z,-15.01
2023-01-06T00:20:48.766Z,-15.10
2023-01-06T00:22:51.468Z,-15.19
2023-01-06T00:24:54.218Z,-15.24
2023-01-06T00:26:56.852Z,-15.31
2023-01-06T00:28:59.466Z,-15.34
2023-01-06T00:31:13.890Z,-15.49
2023-01-06T00:33:16.619Z,-15.55
2023-01-06T00:35:19.537Z,-15.65
2023-01-06T00:37:22.194Z,-15.72
2023-01-06T00:39:24.919Z,-15.81
2023-01-06T00:41:46.140Z,-15.85
2023-01-06T00:43:49.470Z,-15.89
2023-01-06T00:45:52.129Z,-15.98
2023-01-06T00:47:54.820Z,-16.01
2023-01-06T00:49:57.456Z,-16.03
2023-01-06T00:52:00.160Z,-16.04
2023-01-06T00:54:02.850Z,-16.07
2023-01-06T00:56:05.898Z,-16.16
2023-01-06T00:58:08.509Z,-16.26
2023-01-06T01:00:11.867Z,-16.34
2023-01-06T01:02:14.682Z,-16.44
2023-01-06T01:04:18.170Z,-16.51
2023-01-06T01:06:20.889Z,-16.54
2023-01-06T01:08:23.721Z,-16.67
2023-01-06T01:10:26.376Z,-16.78
2023-01-06T01:12:29.008Z,-16.84
2023-01-06T01:14:31.726Z,-16.93
2023-01-06T01:16:34.539Z,-16.96
2023-01-06T01:18:37.188Z,-17.08
2023-01-06T01:20:39.791Z,-17.16
2023-01-06T01:22:42.476Z,-17.23
2023-01-06T01:24:45.150Z,-17.23
2023-01-06T01:26:47.942Z,-17.32
2023-01-06T01:28:50.826Z,-17.41
2023-01-06T01:31:01.047Z,-17.49
2023-01-06T01:33:03.794Z,-17.52
2023-01-06T01:35:06.847Z,-17.63
2023-01-06T01:37:09.561Z,-17.67
2023-01-06T01:39:14.230Z,-17.72
2023-01-06T01:41:19.548Z,-17.78
2023-01-06T01:43:22.242Z,-17.81
2023-01-06T01:45:26.540Z,-17.88
2023-01-06T01:47:49.873Z,-17.96
2023-01-06T01:49:56.198Z,-18.01
2023-01-06T01:51:58.954Z,-18.09
2023-01-06T01:54:06.076Z,-18.17
2023-01-06T01:56:11.413Z,-18.18
2023-01-06T01:58:24.048Z,-18.28
2023-01-06T02:00:26.709Z,-18.31
2023-01-06T02:02:31.972Z,-18.41
2023-01-06T02:04:39.671Z,-18.45
2023-01-06T02:06:42.551Z,-18.50
2023-01-06T02:08:52.045Z,-18.61
2023-01-06T02:10:54.929Z,-18.65
2023-01-06T02:13:00.034Z,-18.68
2023-01-06T02:15:28.687Z,-18.73
2023-01-06T02:18:03.225Z,-18.78
2023-01-06T02:20:37.998Z,-18.82
2023-01-06T02:23:17.492Z,-18.84
2023-01-06T02:25:32.319Z,-18.94
2023-01-06T02:28:14.959Z,-18.96
2023-01-06T02:30:41.909Z,-19.03
2023-01-06T02:33:07.465Z,-19.08
2023-01-06T02:35:32.119Z,-19.12
2023-01-06T02:37:56.136Z,-19.13
2023-01-06T02:40:35.952Z,-19.21
2023-01-06T02:42:56.940Z,-19.31
2023-01-06T02:45:22.336Z,-19.37
2023-01-06T02:47:35.405Z,-19.49
2023-01-06T02:49:53.144Z,-19.51
2023-01-06T02:52:19.829Z,-19.57
2023-01-06T02:54:40.369Z,-19.68
2023-01-06T02:57:02.502Z,-19.77
2023-01-06T02:59:16.047Z,-19.83
2023-01-06T03:01:29.297Z,-19.86
2023-01-06T03:03:36.454Z,-19.90
2023-01-06T03:05:42.179Z,-19.97
2023-01-06T03:07:47.275Z,-19.98
2023-01-06T03:09:53.179Z,-20.04
2023-01-06T03:11:55.810Z,-20.12
2023-01-06T03:14:12.651Z,-20.12
2023-01-06T03:16:16.577Z,-20.21
2023-01-06T03:18:19.631Z,-20.21
2023-01-06T03:20:22.332Z,-20.22
2023-01-06T03:22:25.763Z,-20.25
2023-01-06T03:24:29.064Z,-20.25
2023-01-06T03:26:32.163Z,-20.29
2023-01-06T03:28:34.899Z,-20.35
2023-01-06T03:31:00.090Z,-20.39
2023-01-06T03:33:33.979Z,-20.48
2023-01-06T03:35:50.647Z,-20.58
2023-01-06T03:38:20.435Z,-20.61
2023-01-06T03:40:41.331Z,-20.64
2023-01-06T03:43:25.800Z,-20.79
2023-01-06T03:46:05.523Z,-20.80
2023-01-06T03:48:41.271Z,-20.88
2023-01-06T03:51:04.329Z,-20.95
2023-01-06T03:53:32.885Z,-20.98
2023-01-06T03:55:38.579Z,-21.09
2023-01-06T03:57:49.049Z,-21.13
2023-01-06T03:59:58.986Z,-21.17
2023-01-06T04:02:02.974Z,-21.19
2023-01-06T04:04:05.689Z,-21.29
2023-01-06T04:06:08.330Z,-21.32
2023-01-06T04:08:11.106Z,-21.39
2023-01-06T04:10:15.156Z,-21.40
2023-01-06T04:12:36.354Z,-21.48
2023-01-06T04:14:39.176Z,-21.47
2023-01-06T04:16:41.761Z,-21.58
2023-01-06T04:18:45.900Z,-21.63
2023-01-06T04:20:50.542Z,-21.70
2023-01-06T04:22:54.681Z,-21.71
2023-01-06T04:24:57.652Z,-21.80
2023-01-06T04:27:00.361Z,-21.82
2023-01-06T04:29:03.129Z,-21.89
2023-01-06T04:31:05.894Z,-21.92
2023-01-06T04:33:08.553Z,-22.00
2023-01-06T04:35:11.853Z,-22.07
2023-01-06T04:37:14.504Z,-22.04
2023-01-06T04:39:17.204Z,-22.13
2023-01-06T04:41:21.031Z,-22.18
2023-01-06T04:43:24.375Z,-22.23
2023-01-06T04:45:26.999Z,-22.30
2023-01-06T04:47:29.629Z,-22.35
2023-01-06T04:49:32.288Z,-22.34
2023-01-06T04:51:35.194Z,-22.35
2023-01-06T04:53:40.504Z,-22.41
2023-01-06T04:55:43.146Z,-22.38
2023-01-06T04:57:45.881Z,-22.41
2023-01-06T04:59:48.508Z,-22.47
2023-01-06T05:01:51.189Z,-22.46
2023-01-06T05:03:55.831Z,-22.51
2023-01-06T05:06:04.694Z,-22.50
2023-01-06T05:08:07.954Z,-22.45
2023-01-06T05:10:12.243Z,-22.45
2023-01-06T05:12:15.239Z,-22.47
2023-01-06T05:14:19.497Z,-22.52
2023-01-06T05:16:26.980Z,-22.53
2023-01-06T05:18:29.656Z,-22.55
2023-01-06T05:20:32.236Z,-22.55
2023-01-06T05:22:34.845Z,-22.54
2023-01-06T05:24:37.751Z,-22.59
2023-01-06T05:26:40.488Z,-22.62
2023-01-06T05:28:43.311Z,-22.65
2023-01-06T05:30:45.880Z,-22.70
2023-01-06T05:32:48.476Z,-22.67
2023-01-06T05:34:51.292Z,-22.71
2023-01-06T05:36:53.985Z,-22.72
2023-01-06T05:38:56.576Z,-22.79
2023-01-06T05:40:59.348Z,-22.82
2023-01-06T05:43:02.017Z,-22.82
2023-01-06T05:45:04.915Z,-22.82
2023-01-06T05:47:07.932Z,-22.88
2023-01-06T05:49:10.703Z,-22.99
2023-01-06T05:51:14.860Z,-22.98
2023-01-06T05:53:17.593Z,-23.15
2023-01-06T05:55:20.472Z,-23.00
2023-01-06T05:57:23.069Z,-23.02
2023-01-06T05:59:25.781Z,-23.02
2023-01-06T06:01:34.067Z,-23.03
2023-01-06T06:03:38.352Z,-23.05
2023-01-06T06:05:42.116Z,-23.08
2023-01-06T06:07:44.773Z,-23.12
2023-01-06T06:09:47.420Z,-23.16
2023-01-06T06:11:52.140Z,-23.16
2023-01-06T06:13:56.869Z,-23.20
2023-01-06T06:16:12.067Z,-23.17
2023-01-06T06:18:14.722Z,-23.28
2023-01-06T06:20:17.443Z,-23.27
2023-01-06T06:22:20.189Z,-23.28
2023-01-06T06:24:22.953Z,-23.28
2023-01-06T06:26:25.981Z,-23.23
2023-01-06T06:28:31.539Z,-23.22
2023-01-06T06:30:34.239Z,-23.25
2023-01-06T06:32:36.904Z,-23.30
2023-01-06T06:34:39.609Z,-23.29
2023-01-06T06:36:44.040Z,-23.30
2023-01-06T06:38:48.754Z,-23.31
2023-01-06T06:40:51.587Z,-23.36
2023-01-06T06:42:54.309Z,-23.34
2023-01-06T06:44:57.780Z,-23.30
2023-01-06T06:47:00.772Z,-23.32
2023-01-06T06:49:03.990Z,-23.30
2023-01-06T06:51:09.573Z,-23.41
2023-01-06T06:53:12.341Z,-23.41
2023-01-06T06:55:15.026Z,-23.37
2023-01-06T06:57:17.637Z,-23.34
2023-01-06T06:59:20.279Z,-23.27
2023-01-06T07:01:23.225Z,-23.32
2023-01-06T07:03:25.949Z,-23.28
2023-01-06T07:05:29.666Z,-23.30
2023-01-06T07:07:32.329Z,-23.16
2023-01-06T07:09:35.019Z,-23.25
2023-01-06T07:11:37.700Z,-23.19
2023-01-06T07:13:40.602Z,-23.21
2023-01-06T07:15:43.456Z,-23.25
2023-01-06T07:17:46.260Z,-23.27
2023-01-06T07:19:48.981Z,-23.21
2023-01-06T07:21:51.737Z,-23.28
2023-01-06T07:23:54.425Z,-23.41
2023-01-06T07:25:59.888Z,-23.32
2023-01-06T07:28:07.260Z,-23.28
2023-01-06T07:30:10.855Z,-23.27
2023-01-06T07:32:13.683Z,-23.29
2023-01-06T07:34:16.316Z,-23.35
2023-01-06T07:36:19.121Z,-23.34
2023-01-06T07:38:22.561Z,-23.35
2023-01-06T07:40:25.289Z,-23.40
2023-01-06T07:42:28.421Z,-23.32
2023-01-06T07:44:31.838Z,-23.20
2023-01-06T07:46:35.130Z,-23.14
2023-01-06T07:48:38.331Z,-23.13
2023-01-06T07:50:41.245Z,-23.15
2023-01-06T07:52:46.946Z,-23.08
2023-01-06T07:54:49.799Z,-23.11
2023-01-06T07:56:52.643Z,-23.16
2023-01-06T07:58:55.304Z,-23.16
2023-01-06T08:00:57.970Z,-23.13
2023-01-06T08:03:05.057Z,-23.07
2023-01-06T08:05:08.192Z,-23.10
2023-01-06T08:07:10.819Z,-23.06
2023-01-06T08:09:13.395Z,-23.06
2023-01-06T08:11:16.071Z,-23.09
2023-01-06T08:13:20.438Z,-23.10
2023-01-06T08:15:23.259Z,-23.05
2023-01-06T08:17:25.875Z,-23.18
2023-01-06T08:19:28.503Z,-23.11
2023-01-06T08:21:31.145Z,-23.26
2023-01-06T08:23:34.583Z,-23.11
2023-01-06T08:25:37.237Z,-23.14
2023-01-06T08:27:39.885Z,-23.22
2023-01-06T08:29:42.572Z,-23.11
2023-01-06T08:31:45.446Z,-22.96
2023-01-06T08:33:49.472Z,-22.96
2023-01-06T08:35:58.543Z,-22.91
2023-01-06T08:38:01.206Z,-22.87
2023-01-06T08:40:04.570Z,-22.76
2023-01-06T08:42:07.796Z,-22.70
2023-01-06T08:44:10.644Z,-22.64
2023-01-06T08:46:16.542Z,-22.63
2023-01-06T08:48:19.410Z,-22.56
2023-01-06T08:50:22.034Z,-22.47
2023-01-06T08:52:24.885Z,-22.40
2023-01-06T08:54:29.367Z,-22.43
2023-01-06T08:56:32.745Z,-22.43
2023-01-06T08:58:35.514Z,-22.39
2023-01-06T09:00:41.524Z,-22.44
2023-01-06T09:02:44.102Z,-22.36
2023-01-06T09:04:49.422Z,-22.29
2023-01-06T09:06:52.168Z,-22.20
2023-01-06T09:08:55.990Z,-22.23
2023-01-06T09:10:58.772Z,-22.22
2023-01-06T09:13:01.370Z,-22.20
2023-01-06T09:15:04.874Z,-22.41
2023-01-06T09:17:07.572Z,-22.34
2023-01-06T09:19:10.987Z,-22.45
2023-01-06T09:21:13.688Z,-22.45
2023-01-06T09:23:16.516Z,-22.47
2023-01-06T09:25:21.265Z,-22.51
2023-01-06T09:27:24.408Z,-22.51
2023-01-06T09:29:27.035Z,-22.43
2023-01-06T09:31:30.261Z,-22.50
2023-01-06T09:33:33.579Z,-22.43
2023-01-06T09:35:36.383Z,-22.44
2023-01-06T09:37:39.061Z,-22.42
2023-01-06T09:39:41.824Z,-22.44
2023-01-06T09:42:30.575Z,-22.50
2023-01-06T09:44:41.366Z,-22.42
2023-01-06T09:46:48.998Z,-22.39
2023-01-06T09:49:10.456Z,-22.39
2023-01-06T09:51:21.372Z,-22.50
2023-01-06T09:53:34.843Z,-22.54
2023-01-06T09:55:49.592Z,-22.58
2023-01-06T09:58:18.118Z,-22.51
2023-01-06T10:00:37.447Z,-22.56
2023-01-06T10:02:41.528Z,-22.55
2023-01-06T10:04:44.197Z,-22.66
2023-01-06T10:06:57.649Z,-22.55
2023-01-06T10:09:18.805Z,-22.58
2023-01-06T10:11:45.883Z,-22.66
2023-01-06T10:14:11.451Z,-22.68
2023-01-06T10:16:36.922Z,-22.70
2023-01-06T10:18:57.916Z,-22.71
2023-01-06T10:21:17.941Z,-22.77
2023-01-06T10:23:44.763Z,-22.73
2023-01-06T10:25:53.956Z,-22.64
2023-01-06T10:28:30.137Z,-22.56
2023-01-06T10:30:43.769Z,-22.67
2023-01-06T10:32:49.789Z,-22.67
2023-01-06T10:34:52.804Z,-22.82
2023-01-06T10:37:10.827Z,-22.79
2023-01-06T10:39:18.488Z,-22.84
2023-01-06T10:41:47.477Z,-22.89
2023-01-06T10:43:50.154Z,-22.90
2023-01-06T10:45:54.176Z,-22.90
2023-01-06T10:47:57.551Z,-22.78
2023-01-06T10:50:00.848Z,-22.79
2023-01-06T10:52:04.258Z,-22.80
2023-01-06T10:54:33.841Z,-22.94
2023-01-06T10:56:39.047Z,-23.01
2023-01-06T10:58:54.319Z,-22.96
2023-01-06T11:01:12.176Z,-22.89
2023-01-06T11:03:32.339Z,-22.85
2023-01-06T11:05:36.095Z,-22.90
2023-01-06T11:07:50.121Z,-22.82
2023-01-06T11:09:52.830Z,-22.90
2023-01-06T11:11:58.307Z,-22.98
2023-01-06T11:14:05.701Z,-23.11
2023-01-06T11:16:29.905Z,-23.10
2023-01-06T11:18:35.559Z,-23.09
2023-01-06T11:20:38.559Z,-23.14
2023-01-06T11:22:43.093Z,-23.25
2023-01-06T11:24:54.702Z,-23.29
2023-01-06T11:27:01.453Z,-23.19
2023-01-06T11:29:18.684Z,-23.19
2023-01-06T11:31:28.567Z,-23.24
2023-01-06T11:33:34.268Z,-23.28
2023-01-06T11:35:37.079Z,-23.31
2023-01-06T11:37:42.292Z,-23.32
2023-01-06T11:39:49.122Z,-23.33
2023-01-06T11:41:56.807Z,-23.21
2023-01-06T11:44:10.464Z,-23.08
2023-01-06T11:46:15.498Z,-22.94
2023-01-06T11:48:22.831Z,-22.92
2023-01-06T11:50:25.492Z,-22.98
2023-01-06T11:52:33.512Z,-23.15
2023-01-06T11:54:39.474Z,-23.19
2023-01-06T11:56:42.219Z,-23.23
2023-01-06T11:58:44.807Z,-23.29
2023-01-06T12:00:57.158Z,-23.38
2023-01-06T12:03:03.538Z,-23.45
2023-01-06T12:05:17.641Z,-23.63
2023-01-06T12:07:33.331Z,-23.55
2023-01-06T12:09:41.903Z,-23.56
2023-01-06T12:11:57.133Z,-23.67
2023-01-06T12:14:27.370Z,-23.70
2023-01-06T12:16:35.992Z,-23.67
2023-01-06T12:18:41.653Z,-23.73
2023-01-06T12:20:49.782Z,-23.70
2023-01-06T12:22:57.501Z,-23.74
2023-01-06T12:25:01.942Z,-23.76
2023-01-06T12:27:07.270Z,-23.75
2023-01-06T12:29:17.878Z,-23.77
2023-01-06T12:31:45.341Z,-23.80
2023-01-06T12:33:51.233Z,-23.87
2023-01-06T12:35:57.647Z,-23.87
2023-01-06T12:38:09.710Z,-23.90
2023-01-06T12:40:24.699Z,-24.06
2023-01-06T12:42:56.039Z,-24.14
2023-01-06T12:45:20.721Z,-24.18
2023-01-06T12:47:58.617Z,-24.23
2023-01-06T12:50:07.225Z,-24.41
2023-01-06T12:52:18.351Z,-24.42
2023-01-06T12:54:33.025Z,-24.46
2023-01-06T12:56:59.924Z,-24.48
2023-01-06T12:59:20.506Z,-24.48
2023-01-06T13:01:47.715Z,-24.58
2023-01-06T13:03:53.349Z,-24.63
2023-01-06T13:06:12.368Z,-24.74
2023-01-06T13:08:53.586Z,-24.73
2023-01-06T13:11:35.098Z,-24.73
2023-01-06T13:13:44.053Z,-24.82
2023-01-06T13:15:47.081Z,-24.87
2023-01-06T13:18:05.979Z,-24.90
2023-01-06T13:20:20.476Z,-24.88
2023-01-06T13:22:35.671Z,-24.91
2023-01-06T13:24:57.159Z,-24.98
2023-01-06T13:27:31.256Z,-25.03
2023-01-06T13:30:15.463Z,-25.12
2023-01-06T13:32:40.904Z,-25.14
2023-01-06T13:34:52.826Z,-25.17
2023-01-06T13:37:13.573Z,-25.22
2023-01-06T13:39:33.051Z,-25.26
2023-01-06T13:41:39.956Z,-25.28
2023-01-06T13:43:45.489Z,-25.36
2023-01-06T13:45:54.336Z,-25.41
2023-01-06T13:48:00.872Z,-25.46
2023-01-06T13:50:06.099Z,-25.50
2023-01-06T13:52:23.206Z,-25.53
2023-01-06T13:54:40.965Z,-25.55
2023-01-06T13:56:43.613Z,-25.58
2023-01-06T13:58:47.256Z,-25.73
2023-01-06T14:01:09.666Z,-25.75
2023-01-06T14:03:24.322Z,-25.72
2023-01-06T14:05:30.029Z,-25.74
2023-01-06T14:07:38.950Z,-25.80
2023-01-06T14:09:48.990Z,-25.82
2023-01-06T14:11:51.883Z,-25.95
2023-01-06T14:14:03.956Z,-26.01
2023-01-06T14:16:14.127Z,-26.07
2023-01-06T14:18:35.330Z,-26.13
2023-01-06T14:20:40.333Z,-26.20
2023-01-06T14:22:42.932Z,-26.20
2023-01-06T14:24:58.086Z,-26.26
2023-01-06T14:27:08.942Z,-26.29
2023-01-06T14:29:56.487Z,-26.31
2023-01-06T14:31:59.205Z,-26.45
2023-01-06T14:34:03.543Z,-26.42
2023-01-06T14:36:15.054Z,-26.53
2023-01-06T14:38:25.076Z,-26.55
2023-01-06T14:40:31.769Z,-26.55
2023-01-06T14:42:42.235Z,-26.61
2023-01-06T14:44:48.652Z,-26.64
2023-01-06T14:46:55.464Z,-26.66
2023-01-06T14:49:05.321Z,-26.59
2023-01-06T14:51:13.696Z,-26.71
2023-01-06T14:53:24.993Z,-26.72
2023-01-06T14:55:31.642Z,-26.75
2023-01-06T14:57:39.455Z,-26.76
2023-01-06T14:59:41.972Z,-26.75
2023-01-06T15:01:54.283Z,-26.76
2023-01-06T15:03:59.998Z,-26.80
2023-01-06T15:06:21.472Z,-26.83
2023-01-06T15:08:24.023Z,-26.91
2023-01-06T15:10:28.362Z,-26.91
2023-01-06T15:12:33.022Z,-26.87
2023-01-06T15:14:35.626Z,-26.94
2023-01-06T15:16:41.316Z,-26.93
2023-01-06T15:18:46.405Z,-26.91
2023-01-06T15:20:49.033Z,-26.90
2023-01-06T15:22:53.699Z,-26.86
2023-01-06T15:24:56.813Z,-26.88
2023-01-06T15:27:07.771Z,-26.95
2023-01-06T15:29:17.213Z,-27.04
2023-01-06T15:31:27.339Z,-26.99
2023-01-06T15:33:38.992Z,-27.02
2023-01-06T15:35:43.413Z,-27.00
2023-01-06T15:37:48.707Z,-27.02
2023-01-06T15:39:52.387Z,-27.10
2023-01-06T15:41:56.428Z,-27.12
2023-01-06T15:44:02.718Z,-27.10
2023-01-06T15:46:10.171Z,-27.10
2023-01-06T15:48:19.548Z,-27.15
2023-01-06T15:50:28.819Z,-27.20
2023-01-06T15:52:39.226Z,-27.19
2023-01-06T15:54:45.782Z,-27.22
2023-01-06T15:56:48.472Z,-27.26
2023-01-06T15:58:53.041Z,-27.28
2023-01-06T16:01:17.402Z,-27.35
2023-01-06T16:03:23.082Z,-27.35
2023-01-06T16:05:41.235Z,-27.36
2023-01-06T16:07:45.699Z,-27.38
2023-01-06T16:09:48.411Z,-27.45
2023-01-06T16:12:16.557Z,-27.44
2023-01-06T16:14:38.003Z,-27.44
2023-01-06T16:16:40.848Z,-27.48
2023-01-06T16:18:44.723Z,-27.44
2023-01-06T16:20:49.668Z,-27.46
2023-01-06T16:22:55.334Z,-27.51
2023-01-06T16:25:00.673Z,-27.53
2023-01-06T16:27:05.991Z,-27.52
2023-01-06T16:29:29.526Z,-27.58
2023-01-06T16:31:35.223Z,-27.56
2023-01-06T16:33:44.463Z,-27.56
2023-01-06T16:35:52.450Z,-27.66
2023-01-06T16:37:55.248Z,-27.60
2023-01-06T16:40:00.729Z,-27.67
2023-01-06T16:42:26.002Z,-27.67
2023-01-06T16:44:31.197Z,-27.69
2023-01-06T16:46:33.928Z,-27.81
2023-01-06T16:48:42.835Z,-27.77
2023-01-06T16:50:50.827Z,-27.79
2023-01-06T16:53:09.933Z,-27.80
2023-01-06T16:55:15.062Z,-27.81
2023-01-06T16:57:17.790Z,-27.85
2023-01-06T16:59:22.441Z,-27.80
2023-01-06T17:01:26.996Z,-27.78
2023-01-06T17:03:31.663Z,-27.79
2023-01-06T17:05:35.371Z,-27.81
2023-01-06T17:07:38.092Z,-27.80
2023-01-06T17:09:45.828Z,-27.87
2023-01-06T17:11:53.004Z,-27.92
2023-01-06T17:14:01.036Z,-27.92
2023-01-06T17:16:31.350Z,-27.92
2023-01-06T17:18:34.460Z,-27.96
2023-01-06T17:20:37.124Z,-27.96
2023-01-06T17:22:39.846Z,-28.04
2023-01-06T17:24:42.472Z,-27.98
2023-01-06T17:27:08.022Z,-27.94
2023-01-06T17:29:16.409Z,-27.92
2023-01-06T17:31:31.101Z,-27.99
2023-01-06T17:33:33.983Z,-28.03
2023-01-06T17:35:36.627Z,-28.03
2023-01-06T17:37:39.254Z,-28.07
2023-01-06T17:39:44.796Z,-28.08
2023-01-06T17:41:47.543Z,-28.09
2023-01-06T17:43:50.288Z,-28.09
2023-01-06T17:45:53.452Z,-28.12
2023-01-06T17:47:57.304Z,-28.13
2023-01-06T17:50:01.750Z,-28.12
2023-01-06T17:52:40.254Z,-28.13
2023-01-06T17:55:08.685Z,-28.09
2023-01-06T17:57:19.682Z,-28.18
2023-01-06T17:59:22.305Z,-28.22
2023-01-06T18:01:29.142Z,-28.23
2023-01-06T18:03:33.869Z,-28.21
2023-01-06T18:05:36.412Z,-28.24
2023-01-06T18:07:39.497Z,-28.22
2023-01-06T18:09:42.225Z,-28.29
2023-01-06T18:11:50.355Z,-28.23
2023-01-06T18:13:53.848Z,-28.25
2023-01-06T18:16:07.262Z,-28.25
2023-01-06T18:18:28.999Z,-28.29
2023-01-06T18:20:31.625Z,-28.32
2023-01-06T18:22:35.719Z,-28.31
2023-01-06T18:24:40.848Z,-28.33
2023-01-06T18:26:58.176Z,-28.37
2023-01-06T18:29:13.189Z,-28.37
2023-01-06T18:31:17.593Z,-28.36
2023-01-06T18:33:20.924Z,-28.34
2023-01-06T18:35:27.849Z,-28.39
2023-01-06T18:37:33.617Z,-28.37
2023-01-06T18:39:41.990Z,-28.45
2023-01-06T18:41:44.577Z,-28.47
2023-01-06T18:43:47.195Z,-28.44
2023-01-06T18:45:53.432Z,-28.45
2023-01-06T18:48:00.852Z,-28.50
2023-01-06T18:50:28.100Z,-28.47
2023-01-06T18:52:44.466Z,-28.49
2023-01-06T18:54:48.404Z,-28.56
2023-01-06T18:56:52.442Z,-28.54
2023-01-06T18:58:57.759Z,-28.58
2023-01-06T19:01:03.646Z,-28.56
2023-01-06T19:03:39.213Z,-28.57
2023-01-06T19:05:43.246Z,-28.58
2023-01-06T19:07:45.931Z,-28.65
2023-01-06T19:09:50.173Z,-28.57
2023-01-06T19:12:21.440Z,-28.58
2023-01-06T19:14:24.165Z,-28.65
2023-01-06T19:16:58.842Z,-28.67
2023-01-06T19:19:19.258Z,-28.64
2023-01-06T19:21:23.084Z,-28.58
2023-01-06T19:23:28.060Z,-28.66
2023-01-06T19:25:44.411Z,-28.68
2023-01-06T19:27:55.974Z,-28.67
2023-01-06T19:30:30.039Z,-28.65
2023-01-06T19:32:36.395Z,-28.63
2023-01-06T19:34:39.167Z,-28.60
2023-01-06T19:36:59.985Z,-28.61
2023-01-06T19:39:20.230Z,-28.51
2023-01-06T19:41:34.073Z,-28.50
2023-01-06T19:43:36.710Z,-28.47
2023-01-06T19:45:39.348Z,-28.45
2023-01-06T19:47:42.319Z,-28.46
2023-01-06T19:49:50.003Z,-28.45
2023-01-06T19:51:54.844Z,-28.52
2023-01-06T19:54:03.723Z,-28.53
2023-01-06T19:56:18.033Z,-28.55
2023-01-06T19:58:34.140Z,-28.59
2023-01-06T20:00:47.277Z,-28.64
2023-01-06T20:02:51.854Z,-28.63
2023-01-06T20:04:54.776Z,-28.59
2023-01-06T20:06:57.427Z,-28.62
2023-01-06T20:09:00.062Z,-28.55
2023-01-06T20:11:02.700Z,-28.62
2023-01-06T20:13:06.133Z,-28.60
2023-01-06T20:15:09.352Z,-28.59
2023-01-06T20:17:12.755Z,-28.57
2023-01-06T20:19:16.156Z,-28.59
2023-01-06T20:21:18.907Z,-28.55
2023-01-06T20:23:21.705Z,-28.58
2023-01-06T20:25:24.383Z,-28.55
2023-01-06T20:27:27.055Z,-28.54
2023-01-06T20:29:29.638Z,-28.56
2023-01-06T20:31:32.692Z,-28.55
2023-01-06T20:33:35.369Z,-28.48
2023-01-06T20:35:38.352Z,-28.50
2023-01-06T20:37:41.127Z,-28.44
2023-01-06T20:39:43.721Z,-28.47
2023-01-06T20:41:46.495Z,-28.45
2023-01-06T20:43:49.074Z,-28.46
2023-01-06T20:45:51.819Z,-28.48
2023-01-06T20:47:54.469Z,-28.47
2023-01-06T20:49:57.214Z,-28.45
2023-01-06T20:51:59.812Z,-28.50
2023-01-06T20:54:02.454Z,-28.52
2023-01-06T20:56:05.493Z,-28.50
2023-01-06T20:58:08.190Z,-28.51
2023-01-06T21:00:12.219Z,-28.54
2023-01-06T21:02:14.955Z,-28.51
2023-01-06T21:04:17.773Z,-28.53
2023-01-06T21:06:20.518Z,-28.62
2023-01-06T21:08:23.159Z,-28.66
2023-01-06T21:10:26.298Z,-28.62
2023-01-06T21:12:28.941Z,-28.60
2023-01-06T21:14:32.471Z,-28.66
2023-01-06T21:16:35.173Z,-28.68
2023-01-06T21:18:37.822Z,-28.69
2023-01-06T21:20:40.561Z,-28.72
2023-01-06T21:22:43.117Z,-28.73
2023-01-06T21:24:45.744Z,-28.69
2023-01-06T21:26:48.491Z,-28.65
2023-01-06T21:28:51.071Z,-28.62
2023-01-06T21:30:53.937Z,-28.61
2023-01-06T21:32:56.551Z,-28.62
2023-01-06T21:34:59.136Z,-28.62
2023-01-06T21:37:01.817Z,-28.59
2023-01-06T21:39:07.452Z,-28.57
2023-01-06T21:41:28.703Z,-28.56
2023-01-06T21:43:31.302Z,-28.55
2023-01-06T21:45:33.999Z,-28.55
2023-01-06T21:47:36.594Z,-28.50
2023-01-06T21:49:42.583Z,-28.48
2023-01-06T21:51:47.480Z,-28.44
2023-01-06T21:53:50.082Z,-28.41
2023-01-06T21:55:54.819Z,-28.35
2023-01-06T21:57:57.698Z,-28.31
2023-01-06T22:00:00.303Z,-28.36
2023-01-06T22:02:03.284Z,-28.29
2023-01-06T22:04:05.996Z,-28.23
2023-01-06T22:06:09.949Z,-28.21
2023-01-06T22:08:13.363Z,-28.27
2023-01-06T22:10:19.007Z,-28.25
2023-01-06T22:12:22.045Z,-28.27
2023-01-06T22:14:25.749Z,-28.29
2023-01-06T22:16:28.675Z,-28.29
2023-01-06T22:18:33.053Z,-28.33
2023-01-06T22:20:36.469Z,-28.32
2023-01-06T22:22:40.167Z,-28.32
2023-01-06T22:24:42.915Z,-28.32
2023-01-06T22:26:45.671Z,-28.32
2023-01-06T22:28:48.310Z,-28.34
2023-01-06T22:30:52.900Z,-28.37
2023-01-06T22:32:55.616Z,-28.36
2023-01-06T22:34:58.187Z,-28.35
2023-01-06T22:37:00.968Z,-28.34
2023-01-06T22:39:04.304Z,-28.31
2023-01-06T22:41:07.699Z,-28.33
2023-01-06T22:43:10.348Z,-28.31
2023-01-06T22:45:13.426Z,-28.33
2023-01-06T22:47:16.180Z,-28.31
2023-01-06T22:49:18.790Z,-28.29
2023-01-06T22:51:21.444Z,-28.30
2023-01-06T22:53:24.066Z,-28.31
2023-01-06T22:55:26.659Z,-28.32
2023-01-06T22:57:29.443Z,-28.36
2023-01-06T22:59:32.128Z,-28.40
2023-01-06T23:01:34.841Z,-28.43
2023-01-06T23:03:37.862Z,-28.40
2023-01-06T23:05:40.547Z,-28.43
2023-01-06T23:07:44.253Z,-28.46
2023-01-06T23:09:46.921Z,-28.49
2023-01-06T23:11:49.741Z,-28.50
2023-01-06T23:13:55.571Z,-28.49
2023-01-06T23:16:10.372Z,-28.58
2023-01-06T23:18:13.200Z,-28.65
2023-01-06T23:20:15.885Z,-28.62
2023-01-06T23:22:18.562Z,-28.68
2023-01-06T23:24:21.195Z,-28.61
2023-01-06T23:26:29.925Z,-28.64
2023-01-06T23:28:33.161Z,-28.64
2023-01-06T23:30:35.716Z,-28.65
2023-01-06T23:32:38.355Z,-28.65
2023-01-06T23:34:40.905Z,-28.74
2023-01-06T23:36:44.113Z,-28.75
2023-01-06T23:38:47.315Z,-28.72
2023-01-06T23:40:49.978Z,-28.78
2023-01-06T23:42:54.127Z,-28.75
2023-01-06T23:44:56.785Z,-28.80
2023-01-06T23:46:59.451Z,-28.83
2023-01-06T23:49:02.293Z,-28.85
2023-01-06T23:51:06.326Z,-28.86
2023-01-06T23:53:08.945Z,-28.94
2023-01-06T23:55:11.814Z,-28.90
2023-01-06T23:57:16.341Z,-28.95
2023-01-06T23:59:19.096Z,-28.92
